sensor_id;sensor_type;location;lat;lon;timestamp;P1;durP1;ratioP1;P2;durP2;ratioP2
68273;SDS011;55104;47.356;19.448;2024-02-16T00:01:29;20.33;;;8.07;;
68273;SDS011;55104;47.356;19.448;2024-02-16T00:04:31;13.07;;;6.03;;
68273;SDS011;55104;47.356;19.448;2024-02-16T00:07:34;13.90;;;7.33;;
68273;SDS011;55104;47.356;19.448;2024-02-16T00:10:36;15.35;;;7.32;;
68273;SDS011;55104;47.356;19.448;2024-02-16T00:13:38;18.33;;;8.23;;
68273;SDS011;55104;47.356;19.448;2024-02-16T00:16:40;18.33;;;6.80;;
68273;SDS011;55104;47.356;19.448;2024-02-16T00:19:42;13.43;;;5.82;;
68273;SDS011;55104;47.356;19.448;2024-02-16T00:22:45;12.95;;;6.38;;
68273;SDS011;55104;47.356;19.448;2024-02-16T00:25:47;16.27;;;6.32;;
68273;SDS011;55104;47.356;19.448;2024-02-16T00:28:49;16.20;;;6.33;;
68273;SDS011;55104;47.356;19.448;2024-02-16T00:31:51;14.05;;;6.20;;
68273;SDS011;55104;47.356;19.448;2024-02-16T00:34:54;18.05;;;5.63;;
68273;SDS011;55104;47.356;19.448;2024-02-16T00:37:56;13.80;;;6.57;;
68273;SDS011;55104;47.356;19.448;2024-02-16T00:40:58;13.15;;;6.80;;
68273;SDS011;55104;47.356;19.448;2024-02-16T00:44:00;16.08;;;5.47;;
68273;SDS011;55104;47.356;19.448;2024-02-16T00:47:03;18.13;;;5.93;;
68273;SDS011;55104;47.356;19.448;2024-02-16T00:50:07;13.70;;;5.20;;
68273;SDS011;55104;47.356;19.448;2024-02-16T00:53:11;16.42;;;6.00;;
68273;SDS011;55104;47.356;19.448;2024-02-16T00:56:13;15.60;;;6.10;;
68273;SDS011;55104;47.356;19.448;2024-02-16T00:59:15;17.67;;;6.77;;
68273;SDS011;55104;47.356;19.448;2024-02-16T01:02:18;15.25;;;5.00;;
68273;SDS011;55104;47.356;19.448;2024-02-16T01:05:20;14.27;;;5.68;;
68273;SDS011;55104;47.356;19.448;2024-02-16T01:08:22;14.25;;;5.60;;
68273;SDS011;55104;47.356;19.448;2024-02-16T01:11:25;12.32;;;5.65;;
68273;SDS011;55104;47.356;19.448;2024-02-16T01:14:27;17.98;;;7.90;;
68273;SDS011;55104;47.356;19.448;2024-02-16T01:17:29;16.17;;;6.50;;
68273;SDS011;55104;47.356;19.448;2024-02-16T01:20:34;11.90;;;5.07;;
68273;SDS011;55104;47.356;19.448;2024-02-16T01:23:36;13.80;;;5.07;;
68273;SDS011;55104;47.356;19.448;2024-02-16T01:26:38;16.30;;;6.07;;
68273;SDS011;55104;47.356;19.448;2024-02-16T01:29:41;11.33;;;5.37;;
68273;SDS011;55104;47.356;19.448;2024-02-16T01:32:43;17.75;;;7.18;;
68273;SDS011;55104;47.356;19.448;2024-02-16T01:35:45;13.45;;;6.40;;
68273;SDS011;55104;47.356;19.448;2024-02-16T01:38:48;17.52;;;7.47;;
68273;SDS011;55104;47.356;19.448;2024-02-16T01:41:50;15.43;;;6.25;;
68273;SDS011;55104;47.356;19.448;2024-02-16T01:44:52;11.98;;;5.80;;
68273;SDS011;55104;47.356;19.448;2024-02-16T01:47:55;12.80;;;6.20;;
68273;SDS011;55104;47.356;19.448;2024-02-16T01:50:58;14.60;;;6.17;;
68273;SDS011;55104;47.356;19.448;2024-02-16T01:54:03;15.00;;;5.50;;
68273;SDS011;55104;47.356;19.448;2024-02-16T01:57:05;21.00;;;7.55;;
68273;SDS011;55104;47.356;19.448;2024-02-16T02:00:08;17.27;;;6.77;;
68273;SDS011;55104;47.356;19.448;2024-02-16T02:03:10;14.70;;;6.07;;
68273;SDS011;55104;47.356;19.448;2024-02-16T02:06:16;11.48;;;5.80;;
68273;SDS011;55104;47.356;19.448;2024-02-16T02:09:18;14.43;;;6.50;;
68273;SDS011;55104;47.356;19.448;2024-02-16T02:12:21;12.15;;;5.57;;
68273;SDS011;55104;47.356;19.448;2024-02-16T02:15:24;15.23;;;7.30;;
68273;SDS011;55104;47.356;19.448;2024-02-16T02:18:26;23.60;;;7.22;;
68273;SDS011;55104;47.356;19.448;2024-02-16T02:21:28;14.67;;;6.73;;
68273;SDS011;55104;47.356;19.448;2024-02-16T02:24:31;10.38;;;5.13;;
68273;SDS011;55104;47.356;19.448;2024-02-16T02:27:33;20.90;;;7.00;;
68273;SDS011;55104;47.356;19.448;2024-02-16T02:30:35;16.97;;;5.90;;
68273;SDS011;55104;47.356;19.448;2024-02-16T02:33:40;16.65;;;6.32;;
68273;SDS011;55104;47.356;19.448;2024-02-16T02:36:42;21.67;;;7.70;;
68273;SDS011;55104;47.356;19.448;2024-02-16T02:39:44;14.98;;;6.90;;
68273;SDS011;55104;47.356;19.448;2024-02-16T02:42:46;17.75;;;6.10;;
68273;SDS011;55104;47.356;19.448;2024-02-16T02:45:49;17.02;;;7.05;;
68273;SDS011;55104;47.356;19.448;2024-02-16T02:48:51;15.25;;;7.80;;
68273;SDS011;55104;47.356;19.448;2024-02-16T02:51:54;16.50;;;6.17;;
68273;SDS011;55104;47.356;19.448;2024-02-16T02:54:56;13.38;;;6.70;;
68273;SDS011;55104;47.356;19.448;2024-02-16T02:57:58;19.35;;;8.07;;
68273;SDS011;55104;47.356;19.448;2024-02-16T03:01:00;13.53;;;6.70;;
68273;SDS011;55104;47.356;19.448;2024-02-16T03:04:03;21.95;;;8.23;;
68273;SDS011;55104;47.356;19.448;2024-02-16T03:07:07;13.32;;;5.93;;
68273;SDS011;55104;47.356;19.448;2024-02-16T03:10:09;12.63;;;6.03;;
68273;SDS011;55104;47.356;19.448;2024-02-16T03:13:12;12.27;;;6.32;;
68273;SDS011;55104;47.356;19.448;2024-02-16T03:16:15;16.00;;;8.48;;
68273;SDS011;55104;47.356;19.448;2024-02-16T03:19:18;19.55;;;8.10;;
68273;SDS011;55104;47.356;19.448;2024-02-16T03:22:20;14.07;;;5.67;;
68273;SDS011;55104;47.356;19.448;2024-02-16T03:25:22;15.27;;;7.38;;
68273;SDS011;55104;47.356;19.448;2024-02-16T03:28:26;13.50;;;7.80;;
68273;SDS011;55104;47.356;19.448;2024-02-16T03:31:28;13.03;;;5.80;;
68273;SDS011;55104;47.356;19.448;2024-02-16T03:34:30;21.02;;;8.23;;
68273;SDS011;55104;47.356;19.448;2024-02-16T03:37:32;14.93;;;7.30;;
68273;SDS011;55104;47.356;19.448;2024-02-16T03:40:35;17.20;;;7.63;;
68273;SDS011;55104;47.356;19.448;2024-02-16T03:43:38;16.75;;;6.15;;
68273;SDS011;55104;47.356;19.448;2024-02-16T03:46:40;16.10;;;7.82;;
68273;SDS011;55104;47.356;19.448;2024-02-16T03:49:42;21.95;;;8.20;;
68273;SDS011;55104;47.356;19.448;2024-02-16T03:52:45;17.87;;;6.70;;
68273;SDS011;55104;47.356;19.448;2024-02-16T03:55:47;14.20;;;6.72;;
68273;SDS011;55104;47.356;19.448;2024-02-16T03:58:49;14.55;;;7.30;;
68273;SDS011;55104;47.356;19.448;2024-02-16T04:01:52;19.63;;;6.23;;
68273;SDS011;55104;47.356;19.448;2024-02-16T04:04:54;15.48;;;7.50;;
68273;SDS011;55104;47.356;19.448;2024-02-16T04:07:56;14.88;;;8.75;;
68273;SDS011;55104;47.356;19.448;2024-02-16T04:11:07;15.95;;;5.88;;
68273;SDS011;55104;47.356;19.448;2024-02-16T04:14:09;15.43;;;8.07;;
68273;SDS011;55104;47.356;19.448;2024-02-16T04:17:11;14.43;;;5.97;;
68273;SDS011;55104;47.356;19.448;2024-02-16T04:20:14;20.13;;;8.32;;
68273;SDS011;55104;47.356;19.448;2024-02-16T04:23:17;16.80;;;6.80;;
68273;SDS011;55104;47.356;19.448;2024-02-16T04:26:20;17.67;;;6.68;;
68273;SDS011;55104;47.356;19.448;2024-02-16T04:29:22;15.50;;;6.90;;
68273;SDS011;55104;47.356;19.448;2024-02-16T04:32:24;13.80;;;5.97;;
68273;SDS011;55104;47.356;19.448;2024-02-16T04:35:29;11.55;;;5.30;;
68273;SDS011;55104;47.356;19.448;2024-02-16T04:38:31;14.52;;;6.60;;
68273;SDS011;55104;47.356;19.448;2024-02-16T04:41:34;19.77;;;6.32;;
68273;SDS011;55104;47.356;19.448;2024-02-16T04:44:37;20.30;;;7.38;;
68273;SDS011;55104;47.356;19.448;2024-02-16T04:47:42;13.10;;;6.90;;
68273;SDS011;55104;47.356;19.448;2024-02-16T04:50:44;13.90;;;6.07;;
68273;SDS011;55104;47.356;19.448;2024-02-16T04:53:46;17.67;;;6.57;;
68273;SDS011;55104;47.356;19.448;2024-02-16T04:56:50;20.88;;;8.32;;
68273;SDS011;55104;47.356;19.448;2024-02-16T04:59:52;16.02;;;6.05;;
68273;SDS011;55104;47.356;19.448;2024-02-16T05:02:54;21.63;;;7.73;;
68273;SDS011;55104;47.356;19.448;2024-02-16T05:05:57;17.60;;;6.68;;
68273;SDS011;55104;47.356;19.448;2024-02-16T05:08:59;18.13;;;6.03;;
68273;SDS011;55104;47.356;19.448;2024-02-16T05:12:02;19.50;;;8.43;;
68273;SDS011;55104;47.356;19.448;2024-02-16T05:15:04;26.35;;;9.38;;
68273;SDS011;55104;47.356;19.448;2024-02-16T05:18:07;10.95;;;6.65;;
68273;SDS011;55104;47.356;19.448;2024-02-16T05:21:10;14.98;;;6.63;;
68273;SDS011;55104;47.356;19.448;2024-02-16T05:24:12;13.07;;;6.10;;
68273;SDS011;55104;47.356;19.448;2024-02-16T05:27:14;14.90;;;5.38;;
68273;SDS011;55104;47.356;19.448;2024-02-16T05:30:17;19.95;;;7.28;;
68273;SDS011;55104;47.356;19.448;2024-02-16T05:33:20;14.77;;;8.70;;
68273;SDS011;55104;47.356;19.448;2024-02-16T05:36:23;18.15;;;7.57;;
68273;SDS011;55104;47.356;19.448;2024-02-16T05:39:32;17.70;;;6.68;;
68273;SDS011;55104;47.356;19.448;2024-02-16T05:42:37;17.17;;;7.75;;
68273;SDS011;55104;47.356;19.448;2024-02-16T05:45:41;16.00;;;6.35;;
68273;SDS011;55104;47.356;19.448;2024-02-16T05:48:43;20.35;;;6.60;;
68273;SDS011;55104;47.356;19.448;2024-02-16T05:51:47;11.30;;;5.30;;
68273;SDS011;55104;47.356;19.448;2024-02-16T05:55:08;19.10;;;4.17;;
68273;SDS011;55104;47.356;19.448;2024-02-16T05:58:11;16.60;;;6.15;;
68273;SDS011;55104;47.356;19.448;2024-02-16T06:01:14;14.93;;;6.65;;
68273;SDS011;55104;47.356;19.448;2024-02-16T06:04:16;15.03;;;7.03;;
68273;SDS011;55104;47.356;19.448;2024-02-16T06:07:19;14.50;;;7.05;;
68273;SDS011;55104;47.356;19.448;2024-02-16T06:10:21;11.63;;;5.70;;
68273;SDS011;55104;47.356;19.448;2024-02-16T06:13:24;13.75;;;6.25;;
68273;SDS011;55104;47.356;19.448;2024-02-16T06:16:27;19.38;;;6.97;;
68273;SDS011;55104;47.356;19.448;2024-02-16T06:19:29;13.48;;;6.28;;
68273;SDS011;55104;47.356;19.448;2024-02-16T06:22:32;12.30;;;5.95;;
68273;SDS011;55104;47.356;19.448;2024-02-16T06:25:34;16.47;;;5.77;;
68273;SDS011;55104;47.356;19.448;2024-02-16T06:28:36;15.10;;;6.57;;
68273;SDS011;55104;47.356;19.448;2024-02-16T06:31:39;18.23;;;5.55;;
68273;SDS011;55104;47.356;19.448;2024-02-16T06:34:41;10.50;;;4.57;;
68273;SDS011;55104;47.356;19.448;2024-02-16T06:37:43;10.38;;;4.50;;
68273;SDS011;55104;47.356;19.448;2024-02-16T06:40:46;11.18;;;5.15;;
68273;SDS011;55104;47.356;19.448;2024-02-16T06:43:48;18.50;;;6.47;;
68273;SDS011;55104;47.356;19.448;2024-02-16T06:46:51;17.55;;;5.55;;
68273;SDS011;55104;47.356;19.448;2024-02-16T06:49:53;10.77;;;5.30;;
68273;SDS011;55104;47.356;19.448;2024-02-16T06:52:56;26.75;;;8.02;;
68273;SDS011;55104;47.356;19.448;2024-02-16T06:55:58;13.47;;;5.80;;
68273;SDS011;55104;47.356;19.448;2024-02-16T06:59:00;16.65;;;7.25;;
68273;SDS011;55104;47.356;19.448;2024-02-16T07:02:03;14.50;;;7.32;;
68273;SDS011;55104;47.356;19.448;2024-02-16T07:05:05;20.47;;;8.23;;
68273;SDS011;55104;47.356;19.448;2024-02-16T07:08:07;15.73;;;7.90;;
68273;SDS011;55104;47.356;19.448;2024-02-16T07:11:10;15.65;;;7.13;;
68273;SDS011;55104;47.356;19.448;2024-02-16T07:14:15;18.50;;;8.25;;
68273;SDS011;55104;47.356;19.448;2024-02-16T07:17:18;12.90;;;6.45;;
68273;SDS011;55104;47.356;19.448;2024-02-16T07:20:20;14.13;;;5.43;;
68273;SDS011;55104;47.356;19.448;2024-02-16T07:23:22;11.43;;;5.03;;
68273;SDS011;55104;47.356;19.448;2024-02-16T07:26:24;10.17;;;3.87;;
68273;SDS011;55104;47.356;19.448;2024-02-16T07:29:27;14.13;;;5.85;;
68273;SDS011;55104;47.356;19.448;2024-02-16T07:32:29;14.73;;;6.15;;
68273;SDS011;55104;47.356;19.448;2024-02-16T07:35:32;19.17;;;7.27;;
68273;SDS011;55104;47.356;19.448;2024-02-16T07:38:35;21.80;;;8.18;;
68273;SDS011;55104;47.356;19.448;2024-02-16T07:41:38;27.17;;;11.68;;
68273;SDS011;55104;47.356;19.448;2024-02-16T07:44:41;24.60;;;9.55;;
68273;SDS011;55104;47.356;19.448;2024-02-16T07:47:44;37.63;;;15.90;;
68273;SDS011;55104;47.356;19.448;2024-02-16T07:50:46;34.08;;;12.68;;
68273;SDS011;55104;47.356;19.448;2024-02-16T07:53:49;25.63;;;11.13;;
68273;SDS011;55104;47.356;19.448;2024-02-16T07:56:51;14.10;;;6.80;;
68273;SDS011;55104;47.356;19.448;2024-02-16T07:59:54;87.45;;;41.38;;
68273;SDS011;55104;47.356;19.448;2024-02-16T08:02:57;80.18;;;28.83;;
68273;SDS011;55104;47.356;19.448;2024-02-16T08:06:00;18.60;;;8.33;;
68273;SDS011;55104;47.356;19.448;2024-02-16T08:09:02;15.85;;;7.43;;
68273;SDS011;55104;47.356;19.448;2024-02-16T08:12:07;26.33;;;11.90;;
68273;SDS011;55104;47.356;19.448;2024-02-16T08:15:09;17.58;;;6.75;;
68273;SDS011;55104;47.356;19.448;2024-02-16T08:18:12;15.18;;;7.03;;
68273;SDS011;55104;47.356;19.448;2024-02-16T08:21:15;55.58;;;26.88;;
68273;SDS011;55104;47.356;19.448;2024-02-16T08:24:17;42.25;;;14.88;;
68273;SDS011;55104;47.356;19.448;2024-02-16T08:27:19;21.33;;;10.97;;
68273;SDS011;55104;47.356;19.448;2024-02-16T08:30:22;26.13;;;9.57;;
68273;SDS011;55104;47.356;19.448;2024-02-16T08:33:25;13.40;;;6.53;;
68273;SDS011;55104;47.356;19.448;2024-02-16T08:36:28;11.13;;;4.77;;
68273;SDS011;55104;47.356;19.448;2024-02-16T08:39:33;7.72;;;4.22;;
68273;SDS011;55104;47.356;19.448;2024-02-16T08:42:36;27.88;;;9.50;;
68273;SDS011;55104;47.356;19.448;2024-02-16T08:45:38;11.18;;;5.10;;
68273;SDS011;55104;47.356;19.448;2024-02-16T08:48:46;8.57;;;3.47;;
68273;SDS011;55104;47.356;19.448;2024-02-16T08:51:49;15.20;;;5.32;;
68273;SDS011;55104;47.356;19.448;2024-02-16T08:54:51;12.05;;;5.03;;
68273;SDS011;55104;47.356;19.448;2024-02-16T08:57:53;10.90;;;3.88;;
68273;SDS011;55104;47.356;19.448;2024-02-16T09:00:55;14.52;;;5.05;;
68273;SDS011;55104;47.356;19.448;2024-02-16T09:03:57;19.83;;;6.95;;
68273;SDS011;55104;47.356;19.448;2024-02-16T09:07:02;11.40;;;5.60;;
68273;SDS011;55104;47.356;19.448;2024-02-16T09:10:05;10.43;;;3.93;;
68273;SDS011;55104;47.356;19.448;2024-02-16T09:13:07;13.98;;;5.78;;
68273;SDS011;55104;47.356;19.448;2024-02-16T09:16:11;13.15;;;5.97;;
68273;SDS011;55104;47.356;19.448;2024-02-16T09:19:13;11.85;;;4.65;;
68273;SDS011;55104;47.356;19.448;2024-02-16T09:22:15;12.00;;;4.43;;
68273;SDS011;55104;47.356;19.448;2024-02-16T09:25:17;11.75;;;6.05;;
68273;SDS011;55104;47.356;19.448;2024-02-16T09:28:19;15.27;;;5.57;;
68273;SDS011;55104;47.356;19.448;2024-02-16T09:31:31;11.75;;;4.75;;
68273;SDS011;55104;47.356;19.448;2024-02-16T09:34:33;13.00;;;5.93;;
68273;SDS011;55104;47.356;19.448;2024-02-16T09:37:38;13.63;;;5.80;;
68273;SDS011;55104;47.356;19.448;2024-02-16T09:40:42;14.65;;;5.70;;
68273;SDS011;55104;47.356;19.448;2024-02-16T09:43:44;22.88;;;6.22;;
68273;SDS011;55104;47.356;19.448;2024-02-16T09:46:47;10.97;;;4.03;;
68273;SDS011;55104;47.356;19.448;2024-02-16T09:49:51;10.77;;;4.50;;
68273;SDS011;55104;47.356;19.448;2024-02-16T09:52:54;13.73;;;4.63;;
68273;SDS011;55104;47.356;19.448;2024-02-16T09:55:57;8.75;;;3.10;;
68273;SDS011;55104;47.356;19.448;2024-02-16T09:59:00;11.03;;;4.37;;
68273;SDS011;55104;47.356;19.448;2024-02-16T10:02:02;6.95;;;2.45;;
68273;SDS011;55104;47.356;19.448;2024-02-16T10:05:15;8.38;;;3.42;;
68273;SDS011;55104;47.356;19.448;2024-02-16T10:08:19;12.35;;;2.72;;
68273;SDS011;55104;47.356;19.448;2024-02-16T10:11:22;8.43;;;3.47;;
68273;SDS011;55104;47.356;19.448;2024-02-16T10:14:32;6.97;;;2.50;;
68273;SDS011;55104;47.356;19.448;2024-02-16T10:17:35;11.25;;;3.47;;
68273;SDS011;55104;47.356;19.448;2024-02-16T10:20:38;8.93;;;3.63;;
68273;SDS011;55104;47.356;19.448;2024-02-16T10:23:40;8.77;;;3.40;;
68273;SDS011;55104;47.356;19.448;2024-02-16T10:26:45;7.93;;;3.03;;
68273;SDS011;55104;47.356;19.448;2024-02-16T10:29:47;8.88;;;3.50;;
68273;SDS011;55104;47.356;19.448;2024-02-16T10:32:52;7.22;;;2.80;;
68273;SDS011;55104;47.356;19.448;2024-02-16T10:35:56;10.45;;;3.42;;
68273;SDS011;55104;47.356;19.448;2024-02-16T10:39:02;15.57;;;4.75;;
68273;SDS011;55104;47.356;19.448;2024-02-16T10:42:14;10.13;;;3.33;;
68273;SDS011;55104;47.356;19.448;2024-02-16T10:45:17;10.80;;;3.83;;
68273;SDS011;55104;47.356;19.448;2024-02-16T10:48:20;9.70;;;3.42;;
68273;SDS011;55104;47.356;19.448;2024-02-16T10:51:24;9.95;;;3.03;;
68273;SDS011;55104;47.356;19.448;2024-02-16T10:54:41;8.15;;;3.42;;
68273;SDS011;55104;47.356;19.448;2024-02-16T10:57:45;11.47;;;2.83;;
68273;SDS011;55104;47.356;19.448;2024-02-16T11:00:48;9.27;;;3.13;;
68273;SDS011;55104;47.356;19.448;2024-02-16T11:04:00;6.47;;;2.65;;
68273;SDS011;55104;47.356;19.448;2024-02-16T11:07:12;8.50;;;2.97;;
68273;SDS011;55104;47.356;19.448;2024-02-16T11:10:17;8.45;;;3.60;;
68273;SDS011;55104;47.356;19.448;2024-02-16T11:13:22;13.85;;;3.75;;
68273;SDS011;55104;47.356;19.448;2024-02-16T11:16:28;6.88;;;2.75;;
68273;SDS011;55104;47.356;19.448;2024-02-16T11:19:32;9.30;;;2.70;;
68273;SDS011;55104;47.356;19.448;2024-02-16T11:22:36;7.05;;;2.42;;
68273;SDS011;55104;47.356;19.448;2024-02-16T11:25:49;7.20;;;2.77;;
68273;SDS011;55104;47.356;19.448;2024-02-16T11:28:53;7.50;;;2.53;;
68273;SDS011;55104;47.356;19.448;2024-02-16T11:31:56;6.90;;;1.98;;
68273;SDS011;55104;47.356;19.448;2024-02-16T11:35:08;8.05;;;2.45;;
68273;SDS011;55104;47.356;19.448;2024-02-16T11:38:13;7.63;;;2.28;;
68273;SDS011;55104;47.356;19.448;2024-02-16T11:41:17;6.97;;;2.70;;
68273;SDS011;55104;47.356;19.448;2024-02-16T11:44:19;7.03;;;2.83;;
68273;SDS011;55104;47.356;19.448;2024-02-16T11:47:22;7.20;;;2.40;;
68273;SDS011;55104;47.356;19.448;2024-02-16T11:50:30;7.82;;;2.60;;
68273;SDS011;55104;47.356;19.448;2024-02-16T11:53:33;8.40;;;2.42;;
68273;SDS011;55104;47.356;19.448;2024-02-16T11:56:35;7.57;;;1.93;;
68273;SDS011;55104;47.356;19.448;2024-02-16T11:59:39;6.70;;;2.50;;
68273;SDS011;55104;47.356;19.448;2024-02-16T12:02:41;6.57;;;2.33;;
68273;SDS011;55104;47.356;19.448;2024-02-16T12:05:52;5.90;;;2.08;;
68273;SDS011;55104;47.356;19.448;2024-02-16T12:08:55;6.38;;;2.15;;
68273;SDS011;55104;47.356;19.448;2024-02-16T12:11:57;7.47;;;2.73;;
68273;SDS011;55104;47.356;19.448;2024-02-16T12:15:00;9.73;;;3.42;;
68273;SDS011;55104;47.356;19.448;2024-02-16T12:18:02;7.78;;;2.53;;
68273;SDS011;55104;47.356;19.448;2024-02-16T12:21:05;7.05;;;2.13;;
68273;SDS011;55104;47.356;19.448;2024-02-16T12:24:08;5.57;;;2.03;;
68273;SDS011;55104;47.356;19.448;2024-02-16T12:27:12;8.67;;;3.03;;
68273;SDS011;55104;47.356;19.448;2024-02-16T12:30:14;8.32;;;4.10;;
68273;SDS011;55104;47.356;19.448;2024-02-16T12:33:17;7.05;;;2.97;;
68273;SDS011;55104;47.356;19.448;2024-02-16T12:36:20;8.40;;;3.42;;
68273;SDS011;55104;47.356;19.448;2024-02-16T12:39:24;11.30;;;3.22;;
68273;SDS011;55104;47.356;19.448;2024-02-16T12:42:27;7.90;;;3.27;;
68273;SDS011;55104;47.356;19.448;2024-02-16T12:45:30;7.85;;;2.65;;
68273;SDS011;55104;47.356;19.448;2024-02-16T12:48:33;8.20;;;3.10;;
68273;SDS011;55104;47.356;19.448;2024-02-16T12:51:36;6.45;;;2.35;;
68273;SDS011;55104;47.356;19.448;2024-02-16T12:54:38;7.88;;;3.00;;
68273;SDS011;55104;47.356;19.448;2024-02-16T12:57:41;7.70;;;2.50;;
68273;SDS011;55104;47.356;19.448;2024-02-16T13:00:43;9.13;;;3.08;;
68273;SDS011;55104;47.356;19.448;2024-02-16T13:03:46;7.30;;;2.92;;
68273;SDS011;55104;47.356;19.448;2024-02-16T13:06:49;6.78;;;2.40;;
68273;SDS011;55104;47.356;19.448;2024-02-16T13:09:52;9.60;;;3.15;;
68273;SDS011;55104;47.356;19.448;2024-02-16T13:12:55;8.37;;;2.97;;
68273;SDS011;55104;47.356;19.448;2024-02-16T13:15:57;8.73;;;3.00;;
68273;SDS011;55104;47.356;19.448;2024-02-16T13:19:01;6.57;;;2.38;;
68273;SDS011;55104;47.356;19.448;2024-02-16T13:22:03;8.40;;;2.67;;
68273;SDS011;55104;47.356;19.448;2024-02-16T13:25:06;7.78;;;2.30;;
68273;SDS011;55104;47.356;19.448;2024-02-16T13:28:08;12.43;;;3.00;;
68273;SDS011;55104;47.356;19.448;2024-02-16T13:31:10;11.68;;;3.40;;
68273;SDS011;55104;47.356;19.448;2024-02-16T13:34:13;11.85;;;3.58;;
68273;SDS011;55104;47.356;19.448;2024-02-16T13:37:17;8.35;;;3.47;;
68273;SDS011;55104;47.356;19.448;2024-02-16T13:40:19;11.32;;;3.65;;
68273;SDS011;55104;47.356;19.448;2024-02-16T13:43:21;7.57;;;2.83;;
68273;SDS011;55104;47.356;19.448;2024-02-16T13:46:23;13.60;;;5.05;;
68273;SDS011;55104;47.356;19.448;2024-02-16T13:49:26;10.80;;;3.85;;
68273;SDS011;55104;47.356;19.448;2024-02-16T13:52:28;14.80;;;4.28;;
68273;SDS011;55104;47.356;19.448;2024-02-16T13:55:30;9.30;;;3.92;;
68273;SDS011;55104;47.356;19.448;2024-02-16T13:58:33;8.50;;;3.97;;
68273;SDS011;55104;47.356;19.448;2024-02-16T14:01:36;7.60;;;3.42;;
68273;SDS011;55104;47.356;19.448;2024-02-16T14:04:39;11.23;;;3.33;;
68273;SDS011;55104;47.356;19.448;2024-02-16T14:07:43;9.18;;;3.75;;
68273;SDS011;55104;47.356;19.448;2024-02-16T14:10:58;10.60;;;3.28;;
68273;SDS011;55104;47.356;19.448;2024-02-16T14:14:00;7.33;;;2.63;;
68273;SDS011;55104;47.356;19.448;2024-02-16T14:17:03;10.32;;;3.42;;
68273;SDS011;55104;47.356;19.448;2024-02-16T14:20:06;7.72;;;3.50;;
68273;SDS011;55104;47.356;19.448;2024-02-16T14:23:09;11.98;;;3.20;;
68273;SDS011;55104;47.356;19.448;2024-02-16T14:26:12;8.77;;;3.70;;
68273;SDS011;55104;47.356;19.448;2024-02-16T14:29:14;7.93;;;3.43;;
68273;SDS011;55104;47.356;19.448;2024-02-16T14:32:16;7.57;;;3.03;;
68273;SDS011;55104;47.356;19.448;2024-02-16T14:35:19;6.65;;;2.35;;
68273;SDS011;55104;47.356;19.448;2024-02-16T14:38:21;8.48;;;2.92;;
68273;SDS011;55104;47.356;19.448;2024-02-16T14:41:23;8.05;;;3.35;;
68273;SDS011;55104;47.356;19.448;2024-02-16T14:44:26;12.23;;;3.43;;
68273;SDS011;55104;47.356;19.448;2024-02-16T14:47:28;8.57;;;3.38;;
68273;SDS011;55104;47.356;19.448;2024-02-16T14:50:30;9.35;;;2.88;;
68273;SDS011;55104;47.356;19.448;2024-02-16T14:53:36;9.32;;;2.83;;
68273;SDS011;55104;47.356;19.448;2024-02-16T14:56:39;11.02;;;3.58;;
68273;SDS011;55104;47.356;19.448;2024-02-16T14:59:41;6.77;;;2.07;;
68273;SDS011;55104;47.356;19.448;2024-02-16T15:02:44;7.80;;;2.83;;
68273;SDS011;55104;47.356;19.448;2024-02-16T15:05:46;6.60;;;2.83;;
68273;SDS011;55104;47.356;19.448;2024-02-16T15:08:50;8.77;;;3.05;;
68273;SDS011;55104;47.356;19.448;2024-02-16T15:11:52;7.68;;;3.35;;
68273;SDS011;55104;47.356;19.448;2024-02-16T15:14:54;9.27;;;2.30;;
68273;SDS011;55104;47.356;19.448;2024-02-16T15:17:57;8.88;;;3.67;;
68273;SDS011;55104;47.356;19.448;2024-02-16T15:21:02;14.73;;;5.32;;
68273;SDS011;55104;47.356;19.448;2024-02-16T15:24:05;10.73;;;4.20;;
68273;SDS011;55104;47.356;19.448;2024-02-16T15:27:07;17.17;;;7.25;;
68273;SDS011;55104;47.356;19.448;2024-02-16T15:30:10;18.47;;;8.17;;
68273;SDS011;55104;47.356;19.448;2024-02-16T15:33:12;15.20;;;5.82;;
68273;SDS011;55104;47.356;19.448;2024-02-16T15:36:14;16.35;;;8.25;;
68273;SDS011;55104;47.356;19.448;2024-02-16T15:39:17;10.30;;;5.05;;
68273;SDS011;55104;47.356;19.448;2024-02-16T15:42:19;8.35;;;3.55;;
68273;SDS011;55104;47.356;19.448;2024-02-16T15:45:21;8.90;;;2.60;;
68273;SDS011;55104;47.356;19.448;2024-02-16T15:48:24;7.60;;;2.80;;
68273;SDS011;55104;47.356;19.448;2024-02-16T15:51:27;7.55;;;3.17;;
68273;SDS011;55104;47.356;19.448;2024-02-16T15:54:30;9.52;;;2.58;;
68273;SDS011;55104;47.356;19.448;2024-02-16T15:57:33;9.27;;;2.83;;
68273;SDS011;55104;47.356;19.448;2024-02-16T16:00:35;7.40;;;3.22;;
68273;SDS011;55104;47.356;19.448;2024-02-16T16:03:38;8.35;;;2.50;;
68273;SDS011;55104;47.356;19.448;2024-02-16T16:06:41;6.82;;;2.60;;
68273;SDS011;55104;47.356;19.448;2024-02-16T16:09:44;8.33;;;2.57;;
68273;SDS011;55104;47.356;19.448;2024-02-16T16:12:46;7.80;;;2.78;;
68273;SDS011;55104;47.356;19.448;2024-02-16T16:15:49;8.48;;;3.67;;
68273;SDS011;55104;47.356;19.448;2024-02-16T16:18:51;9.43;;;3.75;;
68273;SDS011;55104;47.356;19.448;2024-02-16T16:21:57;8.80;;;3.53;;
68273;SDS011;55104;47.356;19.448;2024-02-16T16:24:59;10.35;;;3.63;;
68273;SDS011;55104;47.356;19.448;2024-02-16T16:28:01;20.63;;;7.40;;
68273;SDS011;55104;47.356;19.448;2024-02-16T16:31:04;14.38;;;5.80;;
68273;SDS011;55104;47.356;19.448;2024-02-16T16:34:06;15.03;;;5.40;;
68273;SDS011;55104;47.356;19.448;2024-02-16T16:37:09;15.25;;;6.32;;
68273;SDS011;55104;47.356;19.448;2024-02-16T16:40:11;12.43;;;5.53;;
68273;SDS011;55104;47.356;19.448;2024-02-16T16:43:14;15.88;;;6.15;;
68273;SDS011;55104;47.356;19.448;2024-02-16T16:46:16;14.20;;;4.40;;
68273;SDS011;55104;47.356;19.448;2024-02-16T16:49:18;10.40;;;4.40;;
68273;SDS011;55104;47.356;19.448;2024-02-16T16:52:21;13.60;;;4.30;;
68273;SDS011;55104;47.356;19.448;2024-02-16T16:55:24;12.80;;;4.93;;
68273;SDS011;55104;47.356;19.448;2024-02-16T16:58:26;16.60;;;5.50;;
68273;SDS011;55104;47.356;19.448;2024-02-16T17:01:28;13.35;;;5.35;;
68273;SDS011;55104;47.356;19.448;2024-02-16T17:04:31;16.40;;;4.18;;
68273;SDS011;55104;47.356;19.448;2024-02-16T17:07:34;16.50;;;5.80;;
68273;SDS011;55104;47.356;19.448;2024-02-16T17:10:36;10.98;;;4.32;;
68273;SDS011;55104;47.356;19.448;2024-02-16T17:13:39;11.35;;;4.97;;
68273;SDS011;55104;47.356;19.448;2024-02-16T17:16:41;12.48;;;4.78;;
68273;SDS011;55104;47.356;19.448;2024-02-16T17:19:43;18.90;;;5.43;;
68273;SDS011;55104;47.356;19.448;2024-02-16T17:22:47;14.73;;;4.68;;
68273;SDS011;55104;47.356;19.448;2024-02-16T17:25:49;11.65;;;4.47;;
68273;SDS011;55104;47.356;19.448;2024-02-16T17:28:51;15.18;;;5.80;;
68273;SDS011;55104;47.356;19.448;2024-02-16T17:31:54;12.70;;;5.55;;
68273;SDS011;55104;47.356;19.448;2024-02-16T17:34:56;18.33;;;5.32;;
68273;SDS011;55104;47.356;19.448;2024-02-16T17:37:59;18.42;;;5.65;;
68273;SDS011;55104;47.356;19.448;2024-02-16T17:41:02;15.43;;;6.23;;
68273;SDS011;55104;47.356;19.448;2024-02-16T17:44:04;14.18;;;6.82;;
68273;SDS011;55104;47.356;19.448;2024-02-16T17:47:07;16.23;;;6.60;;
68273;SDS011;55104;47.356;19.448;2024-02-16T17:50:09;15.27;;;6.78;;
68273;SDS011;55104;47.356;19.448;2024-02-16T17:53:11;18.00;;;6.77;;
68273;SDS011;55104;47.356;19.448;2024-02-16T17:56:14;15.52;;;7.05;;